Time;durP1;ratioP1;P1;durP2;ratioP2;P2;SDS_P1;SDS_P2;PMS_P1;PMS_P2;Temp;Humidity;BMP_temperature;BMP_pressure;BME280_temperature;BME280_humidity;BME280_pressure;Samples;Min_cycle;Max_cycle;Signal;HPM_P1;HPM_P2
2022/05/29 00:01:44;;;;;;;2.60;1.25;;;12.70;86.00;;;;;;5075816;28;20436;-82
2022/05/29 00:04:09;;;;;;;4.57;1.58;;;12.70;86.20;;;;;;5075235;28;20043;-82
2022/05/29 00:06:39;;;;;;;3.45;1.50;;;12.60;86.50;;;;;;5075118;28;20021;-85
2022/05/29 00:09:06;;;;;;;1.55;1.20;;;12.60;86.60;;;;;;5075606;28;20535;-83
2022/05/29 00:11:31;;;;;;;5.13;1.38;;;12.60;87.30;;;;;;5075500;28;20492;-83
2022/05/29 00:14:00;;;;;;;6.20;1.52;;;12.60;91.60;;;;;;5074571;28;20091;-82
2022/05/29 00:16:29;;;;;;;3.05;1.25;;;12.50;93.60;;;;;;5074760;28;20021;-82
2022/05/29 00:18:55;;;;;;;6.20;1.63;;;12.40;94.70;;;;;;5074498;28;20107;-83
2022/05/29 00:21:22;;;;;;;3.90;1.90;;;12.30;96.10;;;;;;5075038;28;20482;-81
2022/05/29 00:23:50;;;;;;;3.75;1.70;;;12.20;97.80;;;;;;5074252;28;20039;-82
2022/05/29 00:26:17;;;;;;;4.25;1.58;;;12.10;99.10;;;;;;5075135;28;20029;-81
2022/05/29 00:28:44;;;;;;;4.28;1.67;;;12.00;99.90;;;;;;5074165;28;20021;-82
2022/05/29 00:31:10;;;;;;;2.53;1.48;;;11.90;99.90;;;;;;5074832;28;20021;-82
2022/05/29 00:33:36;;;;;;;4.97;1.60;;;11.90;99.90;;;;;;5077666;28;20099;-84
2022/05/29 00:36:02;;;;;;;6.32;1.50;;;11.80;99.90;;;;;;5094732;28;20488;-81
2022/05/29 00:38:30;;;;;;;2.85;1.52;;;11.70;99.90;;;;;;5095037;28;20073;-82
2022/05/29 00:41:04;;;;;;;3.38;1.75;;;11.70;99.90;;;;;;5094316;28;20040;-82
2022/05/29 00:43:30;;;;;;;3.63;1.88;;;11.70;99.90;;;;;;5076856;28;20035;-81
2022/05/29 00:45:59;;;;;;;3.30;1.90;;;11.70;99.90;;;;;;5094002;28;20228;-82
2022/05/29 00:48:26;;;;;;;3.47;1.80;;;11.70;99.90;;;;;;5094769;28;20056;-82
2022/05/29 00:50:55;;;;;;;5.07;1.85;;;11.70;99.90;;;;;;5094081;28;20036;-81
2022/05/29 00:53:22;;;;;;;5.32;2.10;;;11.60;99.90;;;;;;5090987;28;20028;-81
2022/05/29 00:55:57;;;;;;;4.38;1.80;;;11.60;99.90;;;;;;5073703;28;20490;-82
2022/05/29 00:58:24;;;;;;;4.60;1.58;;;11.60;99.90;;;;;;5074583;28;20028;-82
2022/05/29 01:00:53;;;;;;;3.53;2.00;;;11.60;99.90;;;;;;5072978;28;20539;-81
2022/05/29 01:03:19;;;;;;;3.58;1.70;;;11.60;99.90;;;;;;5073393;28;20111;-82
2022/05/29 01:05:45;;;;;;;5.72;2.10;;;11.60;99.90;;;;;;5053488;28;20067;-82
2022/05/29 01:08:16;;;;;;;4.22;2.00;;;11.60;99.90;;;;;;5054538;28;20025;-82
2022/05/29 01:10:57;;;;;;;5.07;2.03;;;11.60;99.90;;;;;;5053745;28;20101;-84
2022/05/29 01:13:56;;;;;;;5.60;2.05;;;11.60;99.90;;;;;;5054226;28;20025;-80
2022/05/29 01:16:56;;;;;;;3.67;2.08;;;11.60;99.90;;;;;;5054968;28;20155;-81
2022/05/29 01:19:52;;;;;;;8.75;2.08;;;11.60;99.90;;;;;;5055366;28;20029;-81
2022/05/29 01:22:20;;;;;;;5.25;2.13;;;11.60;99.90;;;;;;5053979;28;20044;-80
2022/05/29 01:25:08;;;;;;;3.55;1.60;;;11.60;99.90;;;;;;5053876;28;20032;-81
2022/05/29 01:28:05;;;;;;;4.45;1.80;;;11.60;99.90;;;;;;5053916;28;20028;-80
2022/05/29 01:30:37;;;;;;;2.70;1.60;;;11.60;99.90;;;;;;5053705;28;20419;-82
2022/05/29 01:33:37;;;;;;;5.03;2.00;;;11.60;99.90;;;;;;5061012;28;20103;-82
2022/05/29 01:36:46;;;;;;;5.30;1.63;;;11.60;99.90;;;;;;5073085;28;20622;-81
2022/05/29 01:39:26;;;;;;;4.90;1.75;;;11.60;99.90;;;;;;4972703;28;20126;-81
2022/05/29 01:42:01;;;;;;;6.20;1.73;;;11.60;99.90;;;;;;4971979;28;20086;-80
2022/05/29 01:44:42;;;;;;;2.47;1.60;;;11.60;99.90;;;;;;4972830;28;20039;-81
2022/05/29 01:47:37;;;;;;;2.75;1.52;;;11.60;99.90;;;;;;4971232;28;20031;-82
2022/05/29 01:50:10;;;;;;;1.55;1.23;;;11.60;99.90;;;;;;4952741;29;20595;-81
2022/05/29 01:52:42;;;;;;;5.18;2.17;;;11.60;99.90;;;;;;4953418;29;20054;-81
2022/05/29 01:55:11;;;;;;;4.45;1.67;;;11.60;99.90;;;;;;4953281;29;20118;-82
2022/05/29 01:57:40;;;;;;;4.03;1.50;;;11.60;99.90;;;;;;4953117;29;20040;-81
2022/05/29 02:00:13;;;;;;;3.15;1.48;;;11.50;99.90;;;;;;4952496;29;20035;-81
2022/05/29 02:03:10;;;;;;;2.60;1.60;;;11.50;99.90;;;;;;4953036;29;20140;-82
2022/05/29 02:05:51;;;;;;;7.07;1.88;;;11.50;99.90;;;;;;4953296;29;20542;-79
2022/05/29 02:08:34;;;;;;;4.57;1.55;;;11.50;99.90;;;;;;4953348;29;20386;-83
2022/05/29 02:11:10;;;;;;;6.07;1.70;;;11.40;99.90;;;;;;4952274;29;20038;-81
2022/05/29 02:13:54;;;;;;;2.75;1.75;;;11.40;99.90;;;;;;4952962;28;20475;-82
2022/05/29 02:16:36;;;;;;;6.03;1.98;;;11.40;99.90;;;;;;5029036;28;20123;-80
2022/05/29 02:19:28;;;;;;;3.08;1.80;;;11.30;99.90;;;;;;5063721;28;20694;-81
2022/05/29 02:22:14;;;;;;;3.45;1.30;;;11.30;99.90;;;;;;5082910;28;20056;-81
2022/05/29 02:24:44;;;;;;;5.57;1.48;;;11.20;99.90;;;;;;5093081;28;20070;-81
2022/05/29 02:27:36;;;;;;;;;;;11.20;99.90;;;;;;5093306;28;20024;-81
2022/05/29 02:30:04;;;;;;;4.63;1.60;;;11.20;99.90;;;;;;5108442;28;20425;-81
2022/05/29 02:32:30;;;;;;;4.22;1.50;;;11.10;99.90;;;;;;5113454;28;20510;-81
2022/05/29 02:35:19;;;;;;;2.47;1.38;;;11.10;99.90;;;;;;5112630;28;20019;-80
2022/05/29 02:37:59;;;;;;;3.95;1.52;;;11.10;99.90;;;;;;5111349;28;20376;-85
2022/05/29 02:40:40;;;;;;;5.97;1.33;;;11.10;99.90;;;;;;5113438;27;20035;-81
2022/05/29 02:43:24;;;;;;;3.60;1.52;;;11.10;99.90;;;;;;5112807;28;20027;-82
2022/05/29 02:46:24;;;;;;;3.88;1.60;;;11.00;99.90;;;;;;5112474;28;20032;-82
2022/05/29 02:48:58;;;;;;;5.27;1.63;;;11.00;99.90;;;;;;5095290;28;20052;-83
2022/05/29 02:51:31;;;;;;;3.33;1.63;;;11.00;99.90;;;;;;5071441;28;20294;-81
2022/05/29 02:53:57;;;;;;;3.75;1.42;;;11.00;99.90;;;;;;5072025;28;20040;-84
2022/05/29 02:56:22;;;;;;;5.07;1.27;;;11.00;99.90;;;;;;5073040;28;20016;-82
2022/05/29 02:58:52;;;;;;;3.42;1.52;;;10.90;99.90;;;;;;5072310;28;20448;-81
2022/05/29 03:01:31;;;;;;;3.40;1.60;;;10.90;99.90;;;;;;5073073;28;20495;-82
2022/05/29 03:04:33;;;;;;;5.00;1.55;;;10.90;99.90;;;;;;5072049;28;20799;-83
2022/05/29 03:07:46;;;;;;;4.95;1.73;;;10.90;99.90;;;;;;5072507;28;20036;-82
2022/05/29 03:10:18;;;;;;;4.70;1.33;;;11.00;99.90;;;;;;5011171;28;20117;-82
2022/05/29 03:13:12;;;;;;;2.60;1.10;;;11.10;99.90;;;;;;5067801;28;20036;-82
2022/05/29 03:16:05;;;;;;;2.50;1.17;;;11.10;99.90;;;;;;5073173;28;20071;-81
2022/05/29 03:18:50;;;;;;;4.78;2.13;;;11.10;99.90;;;;;;5077280;28;20115;-81
2022/05/29 03:21:54;;;;;;;2.05;1.20;;;11.10;99.90;;;;;;5078709;28;20041;-83
2022/05/29 03:24:25;;;;;;;3.72;1.48;;;11.10;99.90;;;;;;5062145;28;20047;-83
2022/05/29 03:27:06;;;;;;;2.92;1.30;;;11.10;99.90;;;;;;5073001;28;20100;-83
2022/05/29 03:29:37;;;;;;;2.67;1.33;;;11.10;99.90;;;;;;5074535;28;20042;-85
2022/05/29 03:32:04;;;;;;;2.25;1.20;;;11.10;99.90;;;;;;5074452;28;20028;-85
2022/05/29 03:34:30;;;;;;;4.13;1.60;;;11.10;99.90;;;;;;5044523;28;20060;-84
2022/05/29 03:36:55;;;;;;;2.35;1.38;;;11.30;99.90;;;;;;5052951;28;20169;-80
2022/05/29 03:39:21;;;;;;;3.05;1.60;;;11.30;99.20;;;;;;5034943;28;20115;-80
2022/05/29 03:41:49;;;;;;;4.70;1.85;;;11.30;99.30;;;;;;5052918;28;20078;-84
2022/05/29 03:44:17;;;;;;;6.50;1.90;;;11.30;99.40;;;;;;5057451;28;20035;-79
2022/05/29 03:46:44;;;;;;;2.92;1.20;;;11.20;99.10;;;;;;5055632;28;20021;-80
2022/05/29 03:49:15;;;;;;;6.03;1.40;;;11.30;99.10;;;;;;5062470;28;20036;-79
2022/05/29 03:51:41;;;;;;;4.30;1.80;;;11.20;98.90;;;;;;5062546;28;20057;-81
2022/05/29 03:54:08;;;;;;;5.00;1.90;;;11.30;99.10;;;;;;5059740;28;20207;-80
2022/05/29 03:56:34;;;;;;;4.80;1.20;;;11.20;99.10;;;;;;5064013;28;20020;-82
2022/05/29 03:59:00;;;;;;;4.70;1.77;;;11.20;99.10;;;;;;5059346;28;20385;-80
2022/05/29 04:01:26;;;;;;;5.70;1.60;;;11.20;98.70;;;;;;5060064;28;20025;-81
2022/05/29 04:03:55;;;;;;;5.85;1.63;;;11.30;98.60;;;;;;5060569;28;20064;-81
2022/05/29 04:06:22;;;;;;;3.20;1.17;;;11.30;98.70;;;;;;5061654;28;20040;-82
2022/05/29 04:14:17;;;;;;;8.23;1.70;;;11.20;99.90;;;;;;5061051;28;20036;-83
2022/05/29 04:16:42;;;;;;;3.25;1.30;;;11.20;99.30;;;;;;5059680;28;20021;-83
2022/05/29 04:19:08;;;;;;;4.90;1.48;;;11.20;98.90;;;;;;5046093;28;20032;-81
2022/05/29 04:21:34;;;;;;;3.03;1.40;;;11.20;99.50;;;;;;5068367;28;20048;-81
2022/05/29 04:24:00;;;;;;;2.83;1.20;;;11.10;99.10;;;;;;5070861;28;20039;-82
2022/05/29 04:26:26;;;;;;;2.08;1.30;;;11.10;99.00;;;;;;5071983;28;20040;-79
2022/05/29 04:28:52;;;;;;;3.60;1.50;;;11.00;99.50;;;;;;5084075;28;20031;-81
2022/05/29 04:31:17;;;;;;;6.20;1.25;;;11.00;99.80;;;;;;5092136;28;20025;-81
2022/05/29 04:33:43;;;;;;;6.47;1.42;;;10.90;99.90;;;;;;5088298;28;20060;-80
2022/05/29 04:36:08;;;;;;;3.15;1.48;;;10.90;99.90;;;;;;5071546;28;20104;-79
2022/05/29 04:38:34;;;;;;;2.55;1.42;;;10.80;99.90;;;;;;5075216;28;20028;-81
2022/05/29 04:41:06;;;;;;;5.35;1.67;;;10.80;99.90;;;;;;5074377;28;20067;-82
2022/05/29 04:43:32;;;;;;;7.20;1.45;;;10.80;99.90;;;;;;5075294;28;20118;-82
2022/05/29 04:45:57;;;;;;;3.28;1.40;;;10.80;99.90;;;;;;5074370;28;20420;-84
2022/05/29 04:48:23;;;;;;;6.15;1.60;;;10.70;99.90;;;;;;5075173;28;20024;-80
2022/05/29 04:50:56;;;;;;;2.88;1.40;;;10.70;99.90;;;;;;5056418;28;20032;-85
2022/05/29 04:53:21;;;;;;;4.63;1.90;;;10.60;99.90;;;;;;5074718;28;20036;-80
2022/05/29 04:55:47;;;;;;;7.20;1.88;;;10.50;99.90;;;;;;5074493;28;20028;-80
2022/05/29 04:58:13;;;;;;;11.13;2.08;;;10.40;99.90;;;;;;5055778;28;20512;-78
2022/05/29 05:00:38;;;;;;;6.43;2.00;;;10.30;99.90;;;;;;5074805;28;20032;-80
2022/05/29 05:03:04;;;;;;;7.15;2.85;;;10.20;99.90;;;;;;5073948;28;20028;-81
2022/05/29 05:05:30;;;;;;;8.75;4.60;;;10.00;99.90;;;;;;5055962;28;20478;-80
2022/05/29 05:07:55;;;;;;;7.90;4.22;;;9.90;99.90;;;;;;5056412;28;20112;-82
2022/05/29 05:10:21;;;;;;;8.52;4.43;;;9.80;99.90;;;;;;5074648;28;20373;-80
2022/05/29 05:12:47;;;;;;;6.40;2.50;;;9.80;99.90;;;;;;5075127;28;20442;-81
2022/05/29 05:15:15;;;;;;;6.40;2.30;;;9.80;99.90;;;;;;5073727;28;20048;-81
2022/05/29 05:17:42;;;;;;;5.57;2.08;;;9.90;99.90;;;;;;5074665;28;20021;-82
2022/05/29 05:20:08;;;;;;;5.35;2.22;;;9.90;99.90;;;;;;5073485;28;20048;-80
2022/05/29 05:22:34;;;;;;;7.60;2.58;;;9.90;99.90;;;;;;5074597;28;20029;-81
2022/05/29 05:25:01;;;;;;;6.25;2.05;;;9.90;99.90;;;;;;5055592;28;20055;-80
2022/05/29 05:27:28;;;;;;;4.22;2.08;;;9.90;99.90;;;;;;5074115;28;20033;-80
2022/05/29 05:29:53;;;;;;;5.68;2.22;;;10.00;99.90;;;;;;5073546;28;20480;-82
2022/05/29 05:32:19;;;;;;;2.78;1.70;;;10.00;99.90;;;;;;5072615;28;20058;-80
2022/05/29 05:34:45;;;;;;;8.38;2.15;;;10.00;99.90;;;;;;5062438;28;20029;-80
2022/05/29 05:37:11;;;;;;;4.55;2.10;;;10.10;99.90;;;;;;5053402;28;20036;-81
2022/05/29 05:39:37;;;;;;;4.25;1.73;;;10.00;99.90;;;;;;5054234;28;20049;-80
2022/05/29 05:42:05;;;;;;;3.95;1.70;;;10.10;99.90;;;;;;5053604;28;20075;-80
2022/05/29 05:44:30;;;;;;;5.10;1.90;;;10.10;99.90;;;;;;5054440;28;20420;-80
2022/05/29 05:46:56;;;;;;;4.65;1.58;;;10.10;99.90;;;;;;5053594;28;20025;-80
2022/05/29 05:49:23;;;;;;;6.13;2.10;;;10.10;99.90;;;;;;5053672;28;20025;-81
2022/05/29 05:51:54;;;;;;;4.75;1.95;;;10.10;99.90;;;;;;5055313;28;20061;-79
2022/05/29 05:54:19;;;;;;;9.88;2.60;;;10.20;99.90;;;;;;5055747;28;20021;-79
2022/05/29 05:56:50;;;;;;;5.22;2.25;;;10.20;99.90;;;;;;5073987;28;20035;-79
2022/05/29 05:59:16;;;;;;;3.17;2.00;;;10.20;99.90;;;;;;5075087;28;20013;-79
2022/05/29 06:01:41;;;;;;;3.72;1.75;;;10.30;99.90;;;;;;5057052;28;20028;-79
2022/05/29 06:04:08;;;;;;;5.70;1.77;;;10.40;99.90;;;;;;5074785;28;20458;-81
2022/05/29 06:06:34;;;;;;;3.40;1.90;;;10.50;99.90;;;;;;5074979;28;20075;-82
2022/05/29 06:09:00;;;;;;;7.47;1.80;;;10.60;99.90;;;;;;5079151;28;20028;-77
2022/05/29 06:11:27;;;;;;;6.63;1.90;;;10.70;99.90;;;;;;5075440;28;20069;-79
2022/05/29 06:13:53;;;;;;;5.22;1.80;;;10.90;99.90;;;;;;5073831;28;20055;-80
2022/05/29 06:16:20;;;;;;;3.08;1.30;;;11.20;99.90;;;;;;5075931;28;20028;-80
2022/05/29 06:18:45;;;;;;;5.28;1.70;;;11.40;99.90;;;;;;5063761;28;20481;-79
2022/05/29 06:21:11;;;;;;;4.60;1.40;;;11.60;99.90;;;;;;5070159;28;20057;-80
2022/05/29 06:23:40;;;;;;;3.60;1.85;;;11.70;99.90;;;;;;5057518;28;20033;-80
2022/05/29 06:26:09;;;;;;;3.63;1.85;;;11.80;99.90;;;;;;5052441;28;20029;-80
2022/05/29 06:28:35;;;;;;;6.43;2.47;;;11.90;99.90;;;;;;5052930;28;20091;-80
2022/05/29 06:31:04;;;;;;;8.50;2.05;;;12.10;99.90;;;;;;5052503;28;20308;-82
2022/05/29 06:33:30;;;;;;;4.80;1.98;;;12.30;99.90;;;;;;5053170;28;20036;-82
2022/05/29 06:36:12;;;;;;;8.45;1.58;;;12.30;99.90;;;;;;5067546;28;20028;-85
2022/05/29 06:38:38;;;;;;;6.72;1.80;;;12.30;99.90;;;;;;5073242;28;20474;-81
2022/05/29 06:41:06;;;;;;;2.17;1.30;;;12.50;99.90;;;;;;5072498;28;20051;-82
2022/05/29 06:43:32;;;;;;;4.78;1.60;;;12.70;99.90;;;;;;5073087;28;20115;-81
2022/05/29 06:45:59;;;;;;;5.80;1.88;;;12.90;99.90;;;;;;5072525;28;20029;-84
2022/05/29 06:48:25;;;;;;;5.30;1.70;;;13.20;99.60;;;;;;5073165;28;20020;-81
2022/05/29 06:50:51;;;;;;;2.92;1.30;;;13.30;99.40;;;;;;5072674;28;20029;-82
2022/05/29 06:53:17;;;;;;;6.38;1.33;;;13.20;99.60;;;;;;5068974;28;20021;-80
2022/05/29 06:55:53;;;;;;;3.40;1.30;;;13.20;99.40;;;;;;5052435;28;20033;-81
2022/05/29 06:58:19;;;;;;;6.60;1.73;;;13.20;99.40;;;;;;5059603;28;20198;-79
2022/05/29 07:08:58;;;;;;;4.53;1.30;;;13.20;97.90;;;;;;5072347;28;20039;-86
2022/05/29 07:11:27;;;;;;;5.75;1.50;;;13.10;98.00;;;;;;5071701;28;20404;-81
2022/05/29 07:13:54;;;;;;;6.22;1.92;;;13.10;98.60;;;;;;5058780;28;20040;-80
2022/05/29 07:16:20;;;;;;;6.15;1.70;;;13.20;97.90;;;;;;5051256;28;20048;-80
2022/05/29 07:18:50;;;;;;;5.53;1.67;;;13.20;97.90;;;;;;5052084;28;20378;-82
2022/05/29 07:21:16;;;;;;;3.65;1.35;;;13.20;97.90;;;;;;5065445;28;20041;-82
2022/05/29 07:23:43;;;;;;;5.82;1.45;;;13.20;98.30;;;;;;5061342;28;20358;-81
2022/05/29 07:26:09;;;;;;;4.65;1.40;;;13.30;97.40;;;;;;5060385;28;20163;-82
2022/05/29 07:28:34;;;;;;;5.43;1.77;;;13.40;96.70;;;;;;5061132;28;20103;-80
2022/05/29 07:31:00;;;;;;;5.95;1.67;;;13.50;97.00;;;;;;5059251;28;20612;-83
2022/05/29 07:33:26;;;;;;;4.45;1.55;;;13.50;96.50;;;;;;5055949;28;20032;-82
2022/05/29 07:35:52;;;;;;;7.93;2.00;;;13.50;96.90;;;;;;5060286;28;20327;-83
2022/05/29 07:38:18;;;;;;;5.95;1.30;;;13.60;96.90;;;;;;5059104;28;20021;-84
2022/05/29 07:40:44;;;;;;;5.13;1.48;;;13.80;96.10;;;;;;5059107;28;20483;-78
2022/05/29 07:43:19;;;;;;;5.68;1.52;;;13.90;95.50;;;;;;5058881;28;20099;-83
2022/05/29 07:46:00;;;;;;;5.10;1.98;;;14.00;95.20;;;;;;5061648;28;20027;-81
2022/05/29 07:48:28;;;;;;;5.75;1.50;;;13.90;95.10;;;;;;5061031;28;20043;-79
2022/05/29 07:50:54;;;;;;;4.75;1.48;;;14.00;94.90;;;;;;5039511;28;20489;-79
2022/05/29 07:53:21;;;;;;;4.47;1.60;;;14.00;94.80;;;;;;5057200;28;20025;-81
2022/05/29 07:55:47;;;;;;;4.90;1.35;;;14.10;94.50;;;;;;5058861;28;20117;-80
2022/05/29 07:58:14;;;;;;;2.88;1.20;;;14.20;94.80;;;;;;5058913;28;20056;-80
2022/05/29 08:00:41;;;;;;;6.28;1.60;;;14.30;93.70;;;;;;5058901;28;20123;-80
2022/05/29 08:03:07;;;;;;;2.35;1.20;;;14.30;93.20;;;;;;5060492;28;20454;-79
2022/05/29 08:05:35;;;;;;;3.85;1.60;;;14.50;93.00;;;;;;5060211;28;20021;-81
2022/05/29 08:08:04;;;;;;;12.30;2.00;;;14.80;93.00;;;;;;5058353;28;20053;-80
2022/05/29 08:10:32;;;;;;;7.22;1.50;;;14.60;92.40;;;;;;5062401;28;20101;-79
2022/05/29 08:12:58;;;;;;;6.03;1.70;;;14.50;92.00;;;;;;5056735;28;20174;-84
2022/05/29 08:15:24;;;;;;;4.93;1.40;;;14.30;92.80;;;;;;5074369;28;20103;-81
2022/05/29 08:17:50;;;;;;;6.78;1.60;;;14.30;93.50;;;;;;5058242;28;20029;-76
2022/05/29 08:20:17;;;;;;;4.70;1.80;;;14.20;94.20;;;;;;5053678;28;20402;-73
2022/05/29 08:22:42;;;;;;;2.90;1.52;;;14.30;94.20;;;;;;5052769;28;20037;-72
2022/05/29 08:30:41;;;;;;;7.50;1.90;;;14.20;94.00;;;;;;5054841;28;20036;-71
2022/05/29 08:33:18;;;;;;;5.40;1.70;;;14.10;93.60;;;;;;5057161;28;20093;-71
2022/05/29 08:35:49;;;;;;;6.47;1.90;;;14.10;93.90;;;;;;5055095;28;20111;-71
2022/05/29 08:38:17;;;;;;;8.55;2.30;;;14.00;93.60;;;;;;5035971;28;20029;-71
2022/05/29 08:41:07;;;;;;;5.82;1.85;;;13.80;94.00;;;;;;5054879;28;20150;-72
2022/05/29 08:43:54;;;;;;;6.55;1.90;;;13.80;94.30;;;;;;5041885;28;20044;-72
2022/05/29 08:46:32;;;;;;;6.75;2.25;;;14.00;94.00;;;;;;5053994;28;20041;-72
2022/05/29 08:48:58;;;;;;;7.82;1.90;;;14.20;94.30;;;;;;5056184;28;20025;-72
2022/05/29 08:51:30;;;;;;;5.32;1.73;;;14.30;94.30;;;;;;5053725;28;20040;-72
2022/05/29 08:54:11;;;;;;;7.93;2.28;;;14.30;94.60;;;;;;5061225;28;20126;-71
2022/05/29 08:56:57;;;;;;;8.57;2.38;;;14.40;93.80;;;;;;5054489;28;20036;-73
2022/05/29 08:59:32;;;;;;;8.93;2.08;;;14.30;93.80;;;;;;5054049;28;20029;-72
2022/05/29 09:02:23;;;;;;;5.63;1.73;;;14.20;94.40;;;;;;5054876;28;20036;-71
2022/05/29 09:04:56;;;;;;;8.82;1.92;;;14.20;94.70;;;;;;5054013;28;20029;-72
2022/05/29 09:07:25;;;;;;;9.25;1.80;;;14.00;94.70;;;;;;5053557;28;20078;-72
2022/05/29 09:09:58;;;;;;;7.32;2.17;;;14.00;95.10;;;;;;5054180;28;20471;-72
2022/05/29 09:12:38;;;;;;;6.47;1.67;;;13.90;94.80;;;;;;5057218;28;20044;-72
2022/05/29 09:15:16;;;;;;;10.85;2.20;;;13.90;94.90;;;;;;5049908;28;20378;-75
2022/05/29 09:17:52;;;;;;;8.80;2.10;;;13.80;95.80;;;;;;5053847;28;20033;-72
2022/05/29 09:20:28;;;;;;;5.32;1.52;;;13.80;95.50;;;;;;5053601;28;20048;-76
2022/05/29 09:22:57;;;;;;;9.13;2.20;;;13.70;95.50;;;;;;5035401;28;20731;-74
2022/05/29 09:25:42;;;;;;;10.13;2.15;;;13.50;96.90;;;;;;5053020;28;20416;-74
2022/05/29 09:28:24;;;;;;;8.80;2.17;;;13.50;96.30;;;;;;5052589;28;20105;-73
2022/05/29 09:30:53;;;;;;;8.48;2.22;;;13.40;96.50;;;;;;5053869;28;20047;-74
2022/05/29 09:33:26;;;;;;;6.50;2.27;;;13.40;96.20;;;;;;5052822;28;20095;-74
2022/05/29 09:36:00;;;;;;;6.50;1.88;;;13.40;97.10;;;;;;5053442;28;20274;-74
2022/05/29 09:38:59;;;;;;;8.95;2.60;;;13.60;97.10;;;;;;5072773;28;20059;-74
2022/05/29 09:41:27;;;;;;;9.52;2.35;;;13.80;97.00;;;;;;5058944;28;21052;-76
2022/05/29 09:44:05;;;;;;;7.32;2.35;;;13.80;96.50;;;;;;5050136;28;20029;-73
2022/05/29 09:46:33;;;;;;;6.40;1.70;;;13.60;96.20;;;;;;5054963;28;20112;-73
2022/05/29 09:52:06;;;;;;;5.22;1.40;;;13.40;96.30;;;;;;5053185;28;20082;-74
2022/05/29 09:54:38;;;;;;;10.40;2.28;;;13.40;96.50;;;;;;5053164;28;20029;-74
2022/05/29 09:57:08;;;;;;;9.15;1.92;;;13.60;97.10;;;;;;5049418;28;20025;-75
2022/05/29 09:59:39;;;;;;;8.45;2.03;;;13.70;96.80;;;;;;5053527;28;20029;-72
2022/05/29 10:02:06;;;;;;;6.45;2.03;;;13.90;97.00;;;;;;5053532;28;20032;-75
2022/05/29 10:04:41;;;;;;;7.53;1.95;;;13.90;96.40;;;;;;5052782;28;20036;-73
2022/05/29 10:07:42;;;;;;;6.95;2.15;;;14.00;96.30;;;;;;5052562;28;20551;-75
2022/05/29 10:10:13;;;;;;;4.25;1.60;;;14.20;96.00;;;;;;5052171;28;20036;-75
2022/05/29 10:12:44;;;;;;;5.90;1.60;;;14.10;94.70;;;;;;5053100;28;20116;-74
2022/05/29 10:15:14;;;;;;;8.02;1.83;;;14.10;94.30;;;;;;5051911;28;20032;-72
2022/05/29 10:17:40;;;;;;;5.28;1.52;;;14.00;93.80;;;;;;5052776;28;20025;-73
2022/05/29 10:20:32;;;;;;;10.27;1.90;;;14.00;94.00;;;;;;5051692;28;20409;-74
2022/05/29 10:23:01;;;;;;;7.65;1.73;;;13.90;93.60;;;;;;5052750;28;20029;-72
2022/05/29 10:25:31;;;;;;;5.50;1.73;;;13.80;93.30;;;;;;5051142;28;20936;-72
2022/05/29 10:28:47;;;;;;;7.28;1.77;;;13.80;93.60;;;;;;5119854;27;20109;-75
2022/05/29 10:31:24;;;;;;;5.30;1.67;;;13.80;93.80;;;;;;5108439;28;20038;-74
2022/05/29 10:34:04;;;;;;;6.55;2.00;;;13.70;93.40;;;;;;5109436;28;20096;-75
2022/05/29 10:36:30;;;;;;;6.55;1.83;;;13.40;93.60;;;;;;5107959;28;20653;-75
2022/05/29 10:39:12;;;;;;;6.57;1.42;;;13.40;94.00;;;;;;5109225;28;20050;-72
2022/05/29 10:41:42;;;;;;;5.50;1.27;;;13.40;93.50;;;;;;5109751;28;20077;-72
2022/05/29 10:44:14;;;;;;;5.15;1.42;;;13.40;92.70;;;;;;5108864;28;20051;-75
2022/05/29 10:47:05;;;;;;;5.28;1.70;;;13.40;92.10;;;;;;5108627;28;20043;-76
2022/05/29 10:50:23;;;;;;;6.38;2.03;;;13.20;93.30;;;;;;5108361;28;20487;-79
2022/05/29 10:53:07;;;;;;;5.75;1.92;;;13.10;96.80;;;;;;5074439;28;20139;-79
2022/05/29 10:55:36;;;;;;;6.97;1.77;;;12.90;97.70;;;;;;5097567;28;20020;-85
2022/05/29 10:58:25;;;;;;;5.63;2.08;;;12.70;97.70;;;;;;5108535;28;20036;-83
2022/05/29 11:03:17;;;;;;;9.57;1.90;;;12.60;98.10;;;;;;5108503;28;20381;-78
2022/05/29 11:04:14;;;;;;;7.82;2.25;;;12.60;98.00;;;;;;5108288;28;20110;-81
2022/05/29 11:06:53;;;;;;;7.63;1.98;;;12.60;97.60;;;;;;5108029;28;20085;-76
2022/05/29 11:09:43;;;;;;;7.28;2.28;;;12.70;97.90;;;;;;5107436;28;20035;-81
2022/05/29 11:12:23;;;;;;;4.10;1.60;;;12.90;97.30;;;;;;5108378;28;20027;-86
2022/05/29 11:15:07;;;;;;;3.92;2.00;;;13.20;96.30;;;;;;5090496;28;20031;-80
2022/05/29 11:18:13;;;;;;;4.90;1.42;;;13.50;96.50;;;;;;5108730;28;20065;-82
2022/05/29 11:20:59;;;;;;;7.10;1.65;;;13.80;94.70;;;;;;5108338;28;20039;-77
2022/05/29 11:23:42;;;;;;;3.90;1.15;;;13.90;94.50;;;;;;5110242;28;20111;-75
2022/05/29 11:26:34;;;;;;;3.35;1.20;;;14.00;93.40;;;;;;5104821;28;20358;-78
2022/05/29 11:29:09;;;;;;;5.72;1.30;;;14.40;93.20;;;;;;5069432;28;20543;-77
2022/05/29 11:31:49;;;;;;;5.15;1.20;;;14.80;91.90;;;;;;5104873;28;20027;-79
2022/05/29 11:34:15;;;;;;;;;;;15.00;91.00;;;;;;5106131;28;20034;-77
2022/05/29 11:37:11;;;;;;;6.20;1.38;;;15.20;90.30;;;;;;5106922;28;19915;-75
2022/05/29 11:39:59;;;;;;;4.65;1.40;;;15.40;90.00;;;;;;5094674;28;20031;-79
2022/05/29 11:42:38;;;;;;;8.93;1.50;;;15.80;89.00;;;;;;5092177;28;20030;-80
2022/05/29 11:45:22;;;;;;;4.00;1.17;;;16.10;87.20;;;;;;5092841;28;20059;-70
2022/05/29 11:51:08;;;;;;;2.20;1.10;;;16.50;82.90;;;;;;5090454;28;20030;-70
2022/05/29 11:53:37;;;;;;;3.53;1.30;;;16.30;82.20;;;;;;5090849;28;20157;-70
2022/05/29 11:56:10;;;;;;;3.92;1.30;;;16.40;82.80;;;;;;5102383;28;20412;-69
2022/05/29 11:58:39;;;;;;;2.80;1.20;;;16.50;81.70;;;;;;5074191;28;20076;-69
2022/05/29 12:01:14;;;;;;;6.28;1.90;;;16.80;81.40;;;;;;5074056;28;20116;-69
2022/05/29 12:04:17;;;;;;;4.70;1.40;;;16.50;87.80;;;;;;5073737;28;20378;-69
2022/05/29 12:06:54;;;;;;;6.38;1.73;;;16.70;88.80;;;;;;5073663;28;20036;-68
2022/05/29 12:09:26;;;;;;;4.60;2.10;;;16.60;89.80;;;;;;5073955;28;20029;-72
2022/05/29 12:12:02;;;;;;;4.68;1.55;;;16.30;90.80;;;;;;5092976;28;20035;-70
2022/05/29 12:14:34;;;;;;;4.13;1.48;;;16.20;91.00;;;;;;5090097;28;20024;-71
2022/05/29 12:17:22;;;;;;;5.28;1.92;;;16.10;90.70;;;;;;5092065;28;20074;-71
2022/05/29 12:19:55;;;;;;;4.53;1.73;;;16.30;90.80;;;;;;5091424;28;20060;-77
2022/05/29 12:22:35;;;;;;;4.65;1.60;;;16.40;90.10;;;;;;5090585;28;20012;-71
2022/05/29 12:25:06;;;;;;;5.13;1.40;;;16.70;90.40;;;;;;5073066;28;20103;-70
2022/05/29 12:27:34;;;;;;;4.28;1.67;;;17.10;89.00;;;;;;5080120;28;20048;-71
2022/05/29 12:30:22;;;;;;;4.97;1.80;;;17.50;88.80;;;;;;5070975;28;20385;-70
2022/05/29 12:32:48;;;;;;;4.80;1.38;;;17.90;88.10;;;;;;5070497;28;20107;-77
2022/05/29 12:35:16;;;;;;;3.47;1.35;;;17.80;86.60;;;;;;5071364;28;20482;-75
2022/05/29 12:37:57;;;;;;;4.82;1.92;;;17.90;86.70;;;;;;5072144;28;20466;-76
2022/05/29 12:40:57;;;;;;;3.38;1.75;;;18.20;86.40;;;;;;5069193;28;20020;-74
2022/05/29 12:43:41;;;;;;;3.92;1.65;;;18.00;82.20;;;;;;5054702;28;20020;-76
2022/05/29 12:46:27;;;;;;;4.68;1.30;;;17.70;82.80;;;;;;5070600;28;20032;-75
2022/05/29 12:49:12;;;;;;;5.22;1.52;;;17.60;84.10;;;;;;5071848;28;20078;-77
2022/05/29 12:52:17;;;;;;;3.90;1.25;;;17.80;82.00;;;;;;5068673;28;20034;-76
2022/05/29 12:55:18;;;;;;;2.78;1.10;;;17.90;78.10;;;;;;5070114;28;20038;-76
2022/05/29 12:58:08;;;;;;;4.13;1.40;;;18.00;78.80;;;;;;5032215;28;20044;-77
2022/05/29 13:01:15;;;;;;;4.90;1.55;;;18.20;77.00;;;;;;5071081;28;20020;-77
2022/05/29 13:04:11;;;;;;;6.43;1.52;;;18.20;78.40;;;;;;5038021;28;20040;-74
2022/05/29 13:07:01;;;;;;;3.22;1.55;;;18.40;79.60;;;;;;5068859;28;20024;-76
2022/05/29 13:09:44;;;;;;;3.33;0.90;;;18.70;76.70;;;;;;5069860;28;20428;-78
2022/05/29 13:12:18;;;;;;;2.60;1.05;;;18.80;72.60;;;;;;5070092;28;20025;-76
2022/05/29 13:14:51;;;;;;;2.13;1.13;;;18.90;74.50;;;;;;5071921;28;20032;-79
2022/05/29 13:17:33;;;;;;;3.67;1.23;;;19.10;73.80;;;;;;5068511;28;20119;-78
2022/05/29 13:20:12;;;;;;;2.97;1.40;;;19.10;75.40;;;;;;5071546;28;20044;-75
2022/05/29 13:22:49;;;;;;;3.25;0.82;;;18.70;75.60;;;;;;5071508;28;20031;-76
2022/05/29 13:25:16;;;;;;;2.85;1.30;;;18.70;72.30;;;;;;5070649;28;20478;-76
2022/05/29 13:27:42;;;;;;;4.25;1.17;;;18.80;71.60;;;;;;5070833;28;20055;-76
2022/05/29 13:30:29;;;;;;;2.13;1.20;;;18.90;71.60;;;;;;5071046;28;20029;-77
2022/05/29 13:33:24;;;;;;;2.60;0.90;;;19.00;73.10;;;;;;5070070;28;20029;-77
2022/05/29 13:35:50;;;;;;;6.47;1.33;;;19.00;72.00;;;;;;5034652;28;20041;-75
2022/05/29 13:38:44;;;;;;;2.80;1.25;;;19.00;71.40;;;;;;5071771;28;20028;-73
2022/05/29 13:41:28;;;;;;;2.22;0.70;;;19.30;70.30;;;;;;5073097;28;20028;-72
2022/05/29 13:43:54;;;;;;;5.20;1.35;;;19.40;69.70;;;;;;5072513;28;20024;-75
2022/05/29 13:46:26;;;;;;;1.92;0.75;;;19.30;68.40;;;;;;5075138;28;20032;-75
2022/05/29 13:49:07;;;;;;;2.10;0.75;;;19.20;69.30;;;;;;5070520;28;20625;-74
2022/05/29 13:51:41;;;;;;;3.83;1.10;;;19.30;69.20;;;;;;5069868;28;20039;-73